createdAt,value
2024-05-09T00:00:57.972Z,32.63
2024-05-09T00:03:00.892Z,32.16
2024-05-09T00:05:03.218Z,32.38
2024-05-09T00:07:05.064Z,32.23
2024-05-09T00:09:06.772Z,32.30
2024-05-09T00:11:08.621Z,32.46
2024-05-09T00:13:11.384Z,32.35
2024-05-09T00:15:13.281Z,32.31
2024-05-09T00:17:15.115Z,32.40
2024-05-09T00:19:17.024Z,32.48
2024-05-09T00:21:18.831Z,32.39
2024-05-09T00:23:20.968Z,32.45
2024-05-09T00:25:22.678Z,32.64
2024-05-09T00:27:25.357Z,32.62
2024-05-09T00:29:27.229Z,32.61
2024-05-09T00:31:29.101Z,32.70
2024-05-09T00:33:31.316Z,32.50
2024-05-09T00:35:33.337Z,32.55
2024-05-09T00:37:35.312Z,32.67
2024-05-09T00:39:37.645Z,32.59
2024-05-09T00:41:39.434Z,32.86
2024-05-09T00:43:43.937Z,33.06
2024-05-09T00:45:46.486Z,33.15
2024-05-09T00:47:48.717Z,32.85
2024-05-09T00:49:51.243Z,32.68
2024-05-09T00:51:56.570Z,32.76
2024-05-09T00:53:58.413Z,32.91
2024-05-09T00:56:00.545Z,32.84
2024-05-09T00:58:04.964Z,32.93
2024-05-09T01:00:22.328Z,33.08
2024-05-09T01:02:32.684Z,32.80
2024-05-09T01:04:34.618Z,33.08
2024-05-09T01:06:36.678Z,32.94
2024-05-09T01:08:38.683Z,32.76
2024-05-09T01:10:43.923Z,32.78
2024-05-09T01:12:46.945Z,33.00
2024-05-09T01:14:49.036Z,33.05
2024-05-09T01:16:51.169Z,33.01
2024-05-09T01:18:53.063Z,32.89
2024-05-09T01:20:54.886Z,33.03
2024-05-09T01:22:58.052Z,33.09
2024-05-09T01:24:59.962Z,33.13
2024-05-09T01:27:01.681Z,32.96
2024-05-09T01:29:03.711Z,32.97
2024-05-09T01:31:05.560Z,33.25
2024-05-09T01:33:09.874Z,33.09
2024-05-09T01:35:13.474Z,33.31
2024-05-09T01:37:15.197Z,32.91
2024-05-09T01:39:17.191Z,33.37
2024-05-09T01:41:19.117Z,33.15
2024-05-09T01:43:20.976Z,33.00
2024-05-09T01:45:22.731Z,33.26
2024-05-09T01:47:24.714Z,33.15
2024-05-09T01:49:26.885Z,33.32
2024-05-09T01:51:28.727Z,33.01
2024-05-09T01:53:30.540Z,33.11
2024-05-09T01:55:32.385Z,33.15
2024-05-09T01:57:34.167Z,33.26
2024-05-09T01:59:35.952Z,33.53
2024-05-09T02:01:56.055Z,33.33
2024-05-09T02:03:59.865Z,33.53
2024-05-09T02:06:01.912Z,33.29
2024-05-09T02:08:04.788Z,33.48
2024-05-09T02:10:10.980Z,33.51
2024-05-09T02:12:18.467Z,33.17
2024-05-09T02:14:20.680Z,33.28
2024-05-09T02:16:22.395Z,33.37
2024-05-09T02:18:27.275Z,33.42
2024-05-09T02:20:36.323Z,33.31
2024-05-09T02:22:38.980Z,33.43
2024-05-09T02:24:40.715Z,33.31
2024-05-09T02:26:42.396Z,33.29
2024-05-09T02:28:44.112Z,33.39
2024-05-09T02:30:45.815Z,33.58
2024-05-09T02:32:47.764Z,33.25
2024-05-09T02:34:49.782Z,33.56
2024-05-09T02:36:51.505Z,33.57
2024-05-09T02:38:53.397Z,33.50
2024-05-09T02:40:55.171Z,33.23
2024-05-09T02:42:57.048Z,33.43
2024-05-09T02:44:58.857Z,33.36
2024-05-09T02:47:00.589Z,33.68
2024-05-09T02:49:02.435Z,33.36
2024-05-09T02:51:04.700Z,33.45
2024-05-09T02:53:12.634Z,33.61
2024-05-09T02:55:14.567Z,33.57
2024-05-09T02:57:16.267Z,33.47
2024-05-09T02:59:17.968Z,33.49
2024-05-09T03:01:19.946Z,33.43
2024-05-09T03:03:22.224Z,33.40
2024-05-09T03:05:24.219Z,33.44
2024-05-09T03:07:25.902Z,33.37
2024-05-09T03:09:27.988Z,32.95
2024-05-09T03:11:29.951Z,33.71
2024-05-09T03:13:31.882Z,33.54
2024-05-09T03:15:33.613Z,33.52
2024-05-09T03:17:35.764Z,33.43
2024-05-09T03:19:37.776Z,33.51
2024-05-09T03:21:40.301Z,33.33
2024-05-09T03:23:42.909Z,33.76
2024-05-09T03:25:44.811Z,33.46
2024-05-09T03:27:46.629Z,33.42
2024-05-09T03:29:48.430Z,33.52
2024-05-09T03:31:50.255Z,33.19
2024-05-09T03:33:52.253Z,33.77
2024-05-09T03:35:54.073Z,33.47
2024-05-09T03:37:56.036Z,33.90
2024-05-09T03:39:57.732Z,33.66
2024-05-09T03:41:59.554Z,33.51
2024-05-09T03:44:01.268Z,33.38
2024-05-09T03:46:03.147Z,33.35
2024-05-09T03:48:05.239Z,33.54
2024-05-09T03:50:12.133Z,33.73
2024-05-09T03:52:17.228Z,33.20
2024-05-09T03:54:18.973Z,33.65
2024-05-09T03:56:20.805Z,33.29
2024-05-09T03:58:22.794Z,33.56
2024-05-09T04:00:31.442Z,33.58
2024-05-09T04:02:42.837Z,33.74
2024-05-09T04:04:45.040Z,33.46
2024-05-09T04:06:46.858Z,33.65
2024-05-09T04:08:48.710Z,33.94
2024-05-09T04:10:50.530Z,33.74
2024-05-09T04:12:53.256Z,33.74
2024-05-09T04:14:56.006Z,33.39
2024-05-09T04:16:57.721Z,33.68
2024-05-09T04:18:59.479Z,33.58
2024-05-09T04:21:02.934Z,33.76
2024-05-09T04:23:05.701Z,33.82
2024-05-09T04:25:07.596Z,33.68
2024-05-09T04:27:09.285Z,33.79
2024-05-09T04:29:13.648Z,33.33
2024-05-09T04:31:15.379Z,33.51
2024-05-09T04:33:19.258Z,33.63
2024-05-09T04:35:22.448Z,33.73
2024-05-09T04:37:25.518Z,33.47
2024-05-09T04:39:27.535Z,33.64
2024-05-09T04:41:30.072Z,33.59
2024-05-09T04:43:33.280Z,33.63
2024-05-09T04:45:35.698Z,33.72
2024-05-09T04:47:37.826Z,33.61
2024-05-09T04:49:39.737Z,33.67
2024-05-09T04:51:41.908Z,33.78
2024-05-09T04:53:43.723Z,33.71
2024-05-09T04:55:45.968Z,33.53
2024-05-09T04:57:48.116Z,33.82
2024-05-09T04:59:49.821Z,33.75
2024-05-09T05:01:51.688Z,34.02
2024-05-09T05:03:55.879Z,33.72
2024-05-09T05:05:58.049Z,33.65
2024-05-09T05:08:00.770Z,33.75
2024-05-09T05:10:04.480Z,33.66
2024-05-09T05:12:30.739Z,33.63
2024-05-09T05:14:32.567Z,33.71
2024-05-09T05:16:34.355Z,33.62
2024-05-09T05:18:36.178Z,33.60
2024-05-09T05:20:38.545Z,33.90
2024-05-09T05:22:43.119Z,33.91
2024-05-09T05:24:44.860Z,33.66
2024-05-09T05:26:46.558Z,33.72
2024-05-09T05:28:48.344Z,33.99
2024-05-09T05:30:50.382Z,33.81
2024-05-09T05:32:52.442Z,33.81
2024-05-09T05:34:54.300Z,33.77
2024-05-09T05:36:55.993Z,33.89
2024-05-09T05:38:57.744Z,34.00
2024-05-09T05:40:59.644Z,33.52
2024-05-09T05:43:01.396Z,33.91
2024-05-09T05:45:04.603Z,33.52
2024-05-09T05:47:07.964Z,33.65
2024-05-09T05:49:09.961Z,33.96
2024-05-09T05:51:12.201Z,33.71
2024-05-09T05:53:14.271Z,33.79
2024-05-09T05:55:16.144Z,33.84
2024-05-09T05:57:19.073Z,33.73
2024-05-09T05:59:23.995Z,33.77
2024-05-09T06:01:25.811Z,33.68
2024-05-09T06:03:29.321Z,33.84
2024-05-09T06:05:31.250Z,33.62
2024-05-09T06:07:33.158Z,34.16
2024-05-09T06:09:34.897Z,33.75
2024-05-09T06:11:36.757Z,33.77
2024-05-09T06:13:42.893Z,33.58
2024-05-09T06:15:44.691Z,33.85
2024-05-09T06:17:46.634Z,33.80
2024-05-09T06:19:49.066Z,33.76
2024-05-09T06:21:50.942Z,33.69
2024-05-09T06:23:53.440Z,33.80
2024-05-09T06:25:55.253Z,33.67
2024-05-09T06:27:57.331Z,33.49
2024-05-09T06:29:59.027Z,33.94
2024-05-09T06:32:00.928Z,34.07
2024-05-09T06:34:02.969Z,33.96
2024-05-09T06:36:05.646Z,33.68
2024-05-09T06:38:10.516Z,34.30
2024-05-09T06:40:14.548Z,33.79
2024-05-09T06:42:16.480Z,34.04
2024-05-09T06:44:18.672Z,33.87
2024-05-09T06:46:20.699Z,34.22
2024-05-09T06:48:22.966Z,33.95
2024-05-09T06:50:28.327Z,34.15
2024-05-09T06:52:33.460Z,34.06
2024-05-09T06:54:35.202Z,33.96
2024-05-09T06:56:37.732Z,34.04
2024-05-09T06:58:39.618Z,34.26
2024-05-09T07:00:42.234Z,33.80
2024-05-09T07:02:44.442Z,33.75
2024-05-09T07:04:46.388Z,34.21
2024-05-09T07:06:48.111Z,34.07
2024-05-09T07:08:51.915Z,33.85
2024-05-09T07:10:54.282Z,34.18
2024-05-09T07:12:56.085Z,34.35
2024-05-09T07:14:57.815Z,34.14
2024-05-09T07:16:59.815Z,33.89
2024-05-09T07:19:02.067Z,34.08
2024-05-09T07:21:04.126Z,34.29
2024-05-09T07:23:08.983Z,34.01
2024-05-09T07:25:10.762Z,34.10
2024-05-09T07:27:12.741Z,34.25
2024-05-09T07:29:14.454Z,33.90
2024-05-09T07:31:16.175Z,33.93
2024-05-09T07:33:20.826Z,34.48
2024-05-09T07:35:24.257Z,34.28
2024-05-09T07:37:25.939Z,34.01
2024-05-09T07:39:28.471Z,34.11
2024-05-09T07:41:30.737Z,34.28
2024-05-09T07:43:32.520Z,34.28
2024-05-09T07:49:11.924Z,34.16
2024-05-09T07:51:51.331Z,33.98
2024-05-09T07:53:30.593Z,34.20
2024-05-09T07:54:45.726Z,34.13
2024-05-09T07:56:47.851Z,34.07
2024-05-09T07:58:51.022Z,33.93
2024-05-09T08:00:56.050Z,34.23
2024-05-09T08:02:58.382Z,34.32
2024-05-09T08:05:00.225Z,34.06
2024-05-09T08:07:02.119Z,34.48
2024-05-09T08:09:08.102Z,34.06
2024-05-09T08:11:13.245Z,34.32
2024-05-09T08:13:15.120Z,34.32
2024-05-09T08:15:16.893Z,34.10
2024-05-09T08:17:18.680Z,34.38
2024-05-09T08:19:20.725Z,34.45
2024-05-09T08:21:22.521Z,34.33
2024-05-09T08:23:24.511Z,34.14
2024-05-09T08:25:26.477Z,34.30
2024-05-09T08:27:28.286Z,34.36
2024-05-09T08:29:30.800Z,34.48
2024-05-09T08:31:37.356Z,33.96
2024-05-09T08:33:49.155Z,34.01
2024-05-09T08:35:50.988Z,34.15
2024-05-09T08:37:53.632Z,34.43
2024-05-09T08:39:55.744Z,34.38
2024-05-09T08:41:57.613Z,34.54
2024-05-09T08:43:59.331Z,34.24
2024-05-09T08:46:03.196Z,34.24
2024-05-09T08:48:08.207Z,34.40
2024-05-09T08:50:23.463Z,34.50
2024-05-09T08:52:30.821Z,34.04
2024-05-09T08:54:32.625Z,34.33
2024-05-09T08:56:35.500Z,34.32
2024-05-09T08:58:37.739Z,34.28
2024-05-09T09:00:42.004Z,34.18
2024-05-09T09:02:45.106Z,34.54
2024-05-09T09:05:00.092Z,34.55
2024-05-09T09:07:03.552Z,34.24
2024-05-09T09:09:05.703Z,34.47
2024-05-09T09:11:07.920Z,34.22
2024-05-09T09:13:11.427Z,34.36
2024-05-09T09:15:13.248Z,34.50
2024-05-09T09:17:16.319Z,34.63
2024-05-09T09:19:18.595Z,34.41
2024-05-09T09:21:20.480Z,34.54
2024-05-09T09:23:22.773Z,34.63
2024-05-09T09:25:24.810Z,34.56
2024-05-09T09:27:26.720Z,34.58
2024-05-09T09:29:28.497Z,34.43
2024-05-09T09:31:30.824Z,34.54
2024-05-09T09:33:35.373Z,34.70
2024-05-09T09:35:40.309Z,34.51
2024-05-09T09:37:45.405Z,34.73
2024-05-09T09:39:49.194Z,34.81
2024-05-09T09:41:51.854Z,34.42
2024-05-09T09:43:54.622Z,34.57
2024-05-09T09:45:59.732Z,34.58
2024-05-09T09:48:02.721Z,34.76
2024-05-09T09:50:11.826Z,34.76
2024-05-09T09:52:16.707Z,34.70
2024-05-09T09:54:20.091Z,34.64
2024-05-09T09:56:23.785Z,34.68
2024-05-09T09:58:26.256Z,34.58
2024-05-09T10:00:32.950Z,34.61
2024-05-09T10:02:35.933Z,34.61
2024-05-09T10:04:38.347Z,34.72
2024-05-09T10:06:44.008Z,34.57
2024-05-09T10:08:47.930Z,34.94
2024-05-09T10:10:50.559Z,34.62
2024-05-09T10:12:58.561Z,34.73
2024-05-09T10:15:07.352Z,34.69
2024-05-09T10:17:09.130Z,34.61
2024-05-09T10:19:26.659Z,34.54
2024-05-09T10:21:28.459Z,34.48
2024-05-09T10:23:32.468Z,34.77
2024-05-09T10:25:34.472Z,34.31
2024-05-09T10:27:36.499Z,34.42
2024-05-09T10:29:38.219Z,34.13
2024-05-09T10:31:47.821Z,34.08
2024-05-09T10:33:52.541Z,34.17
2024-05-09T10:35:55.139Z,34.01
2024-05-09T10:37:57.551Z,34.23
2024-05-09T10:40:00.023Z,33.84
2024-05-09T10:42:02.311Z,33.95
2024-05-09T10:44:11.364Z,33.80
2024-05-09T10:46:14.407Z,33.48
2024-05-09T10:48:16.415Z,33.81
2024-05-09T10:50:25.473Z,33.60
2024-05-09T10:52:30.674Z,33.42
2024-05-09T10:54:39.411Z,33.47
2024-05-09T10:56:42.121Z,33.60
2024-05-09T10:58:44.042Z,33.40
2024-05-09T11:00:46.030Z,33.58
2024-05-09T11:02:48.335Z,33.50
2024-05-09T11:04:50.256Z,33.31
2024-05-09T11:06:52.232Z,33.27
2024-05-09T11:08:54.105Z,33.33
2024-05-09T11:10:56.531Z,33.19
2024-05-09T11:12:58.465Z,33.13
2024-05-09T11:15:00.205Z,33.30
2024-05-09T11:17:07.306Z,33.12
2024-05-09T11:19:14.104Z,33.15
2024-05-09T11:21:19.340Z,32.92
2024-05-09T11:23:22.549Z,33.16
2024-05-09T11:25:24.413Z,32.98
2024-05-09T11:27:26.256Z,33.05
2024-05-09T11:29:44.753Z,32.67
2024-05-09T11:31:47.530Z,33.05
2024-05-09T11:33:49.643Z,33.08
2024-05-09T11:35:51.421Z,32.86
2024-05-09T11:37:53.269Z,32.74
2024-05-09T11:39:55.057Z,32.29
2024-05-09T11:41:57.789Z,32.76
2024-05-09T11:43:59.822Z,32.76
2024-05-09T11:46:03.543Z,32.76
2024-05-09T11:48:06.111Z,32.87
2024-05-09T11:50:12.970Z,32.67
2024-05-09T11:52:18.078Z,32.74
2024-05-09T11:54:19.785Z,32.47
2024-05-09T11:56:22.167Z,32.65
2024-05-09T11:58:24.001Z,32.46
2024-05-09T12:00:33.964Z,32.72
2024-05-09T12:02:39.162Z,32.36
2024-05-09T12:04:41.035Z,32.62
2024-05-09T12:06:42.954Z,32.65
2024-05-09T12:08:44.794Z,32.69
2024-05-09T12:10:47.168Z,32.86
2024-05-09T12:12:49.183Z,32.61
2024-05-09T12:14:50.872Z,32.71
2024-05-09T12:16:52.649Z,32.71
2024-05-09T12:18:54.434Z,32.49
2024-05-09T12:20:56.646Z,32.48
2024-05-09T12:22:58.704Z,32.46
2024-05-09T12:25:00.512Z,32.40
2024-05-09T12:27:02.339Z,32.46
2024-05-09T12:29:04.123Z,32.44
2024-05-09T12:31:05.908Z,32.56
2024-05-09T12:33:09.730Z,32.27
2024-05-09T12:35:11.757Z,32.68
2024-05-09T12:37:13.922Z,32.31
2024-05-09T12:39:15.755Z,32.14
2024-05-09T12:41:17.759Z,32.18
2024-05-09T12:43:19.819Z,32.25
2024-05-09T12:45:21.852Z,32.52
2024-05-09T12:47:23.666Z,31.99
2024-05-09T12:49:25.692Z,32.37
2024-05-09T12:51:27.708Z,32.27
2024-05-09T12:53:29.391Z,32.22
2024-05-09T12:55:37.605Z,32.27
2024-05-09T12:57:46.461Z,31.92
2024-05-09T12:59:48.293Z,32.12
2024-05-09T13:01:50.120Z,32.12
2024-05-09T13:03:52.231Z,32.22
2024-05-09T13:05:54.606Z,32.23
2024-05-09T13:07:57.132Z,32.22
2024-05-09T13:09:59.042Z,32.30
2024-05-09T13:12:00.791Z,32.12
2024-05-09T13:14:02.893Z,32.66
2024-05-09T13:16:05.016Z,32.35
2024-05-09T13:18:07.563Z,32.01
2024-05-09T13:20:15.165Z,32.04
2024-05-09T13:22:24.713Z,31.98
2024-05-09T13:24:26.413Z,32.25
2024-05-09T13:26:28.136Z,32.17
2024-05-09T13:28:33.798Z,31.94
2024-05-09T13:30:40.331Z,31.89
2024-05-09T13:32:44.107Z,31.93
2024-05-09T13:34:45.894Z,32.08
2024-05-09T13:36:47.714Z,31.87
2024-05-09T13:38:49.612Z,31.77
2024-05-09T13:40:51.579Z,31.83
2024-05-09T13:42:53.805Z,31.88
2024-05-09T13:44:55.763Z,31.80
2024-05-09T13:46:58.048Z,32.10
2024-05-09T13:48:59.932Z,31.85
2024-05-09T13:51:01.759Z,31.71
2024-05-09T13:53:06.707Z,31.62
2024-05-09T13:55:10.920Z,31.48
2024-05-09T13:57:13.079Z,31.57
2024-05-09T13:59:14.777Z,31.68
2024-05-09T14:01:16.850Z,31.58
2024-05-09T14:03:20.403Z,31.56
2024-05-09T14:05:23.060Z,31.54
2024-05-09T14:07:25.053Z,31.36
2024-05-09T14:09:28.045Z,31.64
2024-05-09T14:11:29.886Z,31.57
2024-05-09T14:13:31.651Z,31.57
2024-05-09T14:15:33.429Z,31.64
2024-05-09T14:17:35.424Z,31.45
2024-05-09T14:19:37.538Z,31.78
2024-05-09T14:21:39.414Z,31.46
2024-05-09T14:23:41.263Z,31.60
2024-05-09T14:25:44.590Z,32.06
2024-05-09T14:27:47.297Z,31.68
2024-05-09T14:29:49.186Z,31.97
2024-05-09T14:31:50.936Z,31.61
2024-05-09T14:33:52.948Z,31.73
2024-05-09T14:35:55.145Z,31.67
2024-05-09T14:37:56.953Z,31.31
2024-05-09T14:39:59.275Z,31.64
2024-05-09T14:42:01.080Z,31.36
2024-05-09T14:44:02.912Z,31.32
2024-05-09T14:46:05.102Z,31.77
2024-05-09T14:48:07.840Z,31.78
2024-05-09T14:50:16.795Z,32.04
2024-05-09T14:52:25.138Z,31.70
2024-05-09T14:54:26.886Z,31.75
2024-05-09T14:56:28.875Z,31.51
2024-05-09T14:58:33.376Z,31.58
2024-05-09T15:00:41.517Z,31.62
2024-05-09T15:02:46.592Z,31.74
2024-05-09T15:04:49.812Z,31.26
2024-05-09T15:06:51.740Z,31.86
2024-05-09T15:08:57.389Z,31.78
2024-05-09T15:10:59.212Z,31.69
2024-05-09T15:13:01.441Z,31.94
2024-05-09T15:15:03.886Z,31.92
2024-05-09T15:17:05.989Z,31.72
2024-05-09T15:19:08.880Z,31.76
2024-05-09T15:21:10.842Z,31.43
2024-05-09T15:23:12.632Z,31.61
2024-05-09T15:25:14.623Z,31.31
2024-05-09T15:27:17.303Z,31.64
2024-05-09T15:29:19.140Z,31.63
2024-05-09T15:31:20.847Z,31.79
2024-05-09T15:33:22.841Z,31.54
2024-05-09T15:35:24.602Z,31.86
2024-05-09T15:37:27.134Z,31.71
2024-05-09T15:39:30.356Z,31.98
2024-05-09T15:41:32.121Z,31.65
2024-05-09T15:43:36.475Z,31.89
2024-05-09T15:45:39.299Z,32.01
2024-05-09T15:47:41.540Z,31.71
2024-05-09T15:49:43.531Z,31.95
2024-05-09T15:51:45.590Z,31.99
2024-05-09T15:53:47.506Z,32.08
2024-05-09T15:55:49.511Z,31.96
2024-05-09T15:57:51.305Z,32.19
2024-05-09T15:59:53.082Z,31.98
2024-05-09T16:01:55.642Z,32.10
2024-05-09T16:03:57.600Z,32.35
2024-05-09T16:05:59.570Z,32.09
2024-05-09T16:08:01.369Z,32.04
2024-05-09T16:10:06.557Z,32.18
2024-05-09T16:12:08.592Z,32.22
2024-05-09T16:14:10.401Z,32.43
2024-05-09T16:16:12.427Z,32.14
2024-05-09T16:18:14.308Z,32.28
2024-05-09T16:20:25.754Z,32.13
2024-05-09T16:22:35.935Z,32.37
2024-05-09T16:24:37.766Z,32.67
2024-05-09T16:26:39.511Z,32.27
2024-05-09T16:28:41.252Z,32.27
2024-05-09T16:30:43.084Z,32.47
2024-05-09T16:32:46.422Z,32.58
2024-05-09T16:34:48.448Z,32.58
2024-05-09T16:36:51.484Z,32.50
2024-05-09T16:38:53.240Z,32.54
2024-05-09T16:40:55.186Z,32.36
2024-05-09T16:42:56.958Z,32.28
2024-05-09T16:44:58.713Z,32.55
2024-05-09T16:47:00.525Z,32.56
2024-05-09T16:49:02.958Z,32.43
2024-05-09T16:51:05.026Z,32.49
2024-05-09T16:53:07.228Z,32.53
2024-05-09T16:55:09.349Z,32.58
2024-05-09T16:57:11.163Z,32.69
2024-05-09T16:59:13.203Z,32.48
2024-05-09T17:01:15.166Z,32.44
2024-05-09T17:03:17.599Z,32.44
2024-05-09T17:05:21.645Z,32.76
2024-05-09T17:07:23.538Z,32.86
2024-05-09T17:09:25.454Z,32.56
2024-05-09T17:11:27.230Z,32.67
2024-05-09T17:13:29.105Z,32.56
2024-05-09T17:15:31.977Z,32.67
2024-05-09T17:17:34.333Z,32.51
2024-05-09T17:19:40.528Z,32.46
2024-05-09T17:21:42.292Z,32.58
2024-05-09T17:23:44.061Z,32.45
2024-05-09T17:25:45.894Z,32.45
2024-05-09T17:27:48.095Z,32.66
2024-05-09T17:29:49.860Z,32.57
2024-05-09T17:31:51.639Z,32.48
2024-05-09T17:33:53.707Z,32.56
2024-05-09T17:35:55.572Z,32.58
2024-05-09T17:37:58.558Z,32.48
2024-05-09T17:40:00.356Z,32.64
2024-05-09T17:42:02.096Z,32.77
2024-05-09T17:44:03.953Z,33.03
2024-05-09T17:46:07.884Z,32.75
2024-05-09T17:48:11.220Z,32.83
2024-05-09T17:50:20.959Z,32.74
2024-05-09T17:52:28.575Z,32.87
2024-05-09T17:54:30.439Z,32.67
2024-05-09T17:56:32.334Z,32.72
2024-05-09T17:58:34.365Z,32.84
2024-05-09T18:00:39.992Z,32.68
2024-05-09T18:02:44.024Z,32.73
2024-05-09T18:04:45.925Z,32.79
2024-05-09T18:06:48.056Z,32.60
2024-05-09T18:08:49.790Z,32.62
2024-05-09T18:10:52.699Z,32.82
2024-05-09T18:12:56.147Z,32.98
2024-05-09T18:14:59.109Z,33.06
2024-05-09T18:17:00.899Z,32.75
2024-05-09T18:19:02.889Z,32.84
2024-05-09T18:21:04.860Z,32.78
2024-05-09T18:23:06.571Z,32.75
2024-05-09T18:25:08.539Z,32.84
2024-05-09T18:27:10.931Z,32.89
2024-05-09T18:29:12.673Z,32.83
2024-05-09T18:31:15.457Z,32.80
2024-05-09T18:33:17.384Z,32.93
2024-05-09T18:35:19.239Z,32.72
2024-05-09T18:37:21.032Z,33.00
2024-05-09T18:39:23.006Z,32.92
2024-05-09T18:41:24.748Z,32.88
2024-05-09T18:43:31.568Z,33.11
2024-05-09T18:45:40.275Z,32.89
2024-05-09T18:47:42.320Z,32.92
2024-05-09T18:49:44.405Z,33.02
2024-05-09T18:51:46.195Z,33.00
2024-05-09T18:53:48.111Z,32.75
2024-05-09T18:55:49.877Z,33.07
2024-05-09T18:57:51.695Z,32.85
2024-05-09T18:59:53.551Z,33.17
2024-05-09T19:01:55.382Z,33.12
2024-05-09T19:03:57.378Z,33.29
2024-05-09T19:05:59.396Z,33.29
2024-05-09T19:08:01.574Z,33.10
2024-05-09T19:10:03.620Z,32.97
2024-05-09T19:12:06.514Z,33.16
2024-05-09T19:14:08.516Z,33.28
2024-05-09T19:16:10.708Z,33.07
2024-05-09T19:18:13.906Z,33.17
2024-05-09T19:20:24.977Z,33.16
2024-05-09T19:22:31.721Z,33.27
2024-05-09T19:24:33.661Z,33.07
2024-05-09T19:26:35.638Z,33.14
2024-05-09T19:28:37.403Z,33.20
2024-05-09T19:30:41.970Z,33.24
2024-05-09T19:32:45.167Z,33.35
2024-05-09T19:34:46.986Z,33.42
2024-05-09T19:36:48.807Z,33.39
2024-05-09T19:38:51.538Z,33.45
2024-05-09T19:40:53.411Z,33.19
2024-05-09T19:42:55.265Z,33.31
2024-05-09T19:44:57.201Z,33.06
2024-05-09T19:46:59.046Z,33.50
2024-05-09T19:49:03.170Z,33.50
2024-05-09T19:51:05.538Z,33.43
2024-05-09T19:53:08.541Z,33.32
2024-05-09T19:55:10.435Z,33.55
2024-05-09T19:57:14.595Z,33.49
2024-05-09T19:59:16.520Z,33.61
2024-05-09T20:01:18.405Z,33.49
2024-05-09T20:03:20.321Z,33.58
2024-05-09T20:05:22.480Z,33.54
2024-05-09T20:07:24.311Z,33.63
2024-05-09T20:09:26.082Z,33.80
2024-05-09T20:11:27.915Z,33.53
2024-05-09T20:13:29.717Z,33.83
2024-05-09T20:15:32.328Z,33.43
2024-05-09T20:17:34.294Z,33.61
2024-05-09T20:19:36.167Z,33.50
2024-05-09T20:21:44.346Z,33.50
2024-05-09T20:23:46.079Z,33.75
2024-05-09T20:25:47.891Z,33.68
2024-05-09T20:27:49.645Z,33.83
2024-05-09T20:29:51.418Z,33.73
2024-05-09T20:31:53.197Z,33.86
2024-05-09T20:33:55.134Z,33.93
2024-05-09T20:36:01.644Z,33.48
2024-05-09T20:38:04.702Z,33.82
2024-05-09T20:40:12.031Z,34.05
2024-05-09T20:42:17.616Z,33.98
2024-05-09T20:44:19.423Z,33.97
2024-05-09T20:46:21.329Z,33.99
2024-05-09T20:48:24.692Z,33.96
2024-05-09T20:50:35.943Z,33.92
2024-05-09T20:52:41.723Z,33.78
2024-05-09T20:54:43.766Z,33.90
2024-05-09T20:56:45.487Z,33.75
2024-05-09T20:58:50.474Z,33.84
2024-05-09T21:00:52.442Z,34.10
2024-05-09T21:02:54.277Z,34.03
2024-05-09T21:04:56.460Z,33.98
2024-05-09T21:06:58.440Z,34.11
2024-05-09T21:09:00.160Z,33.87
2024-05-09T21:11:02.518Z,33.96
2024-05-09T21:13:05.663Z,34.12
2024-05-09T21:15:08.556Z,33.96
2024-05-09T21:17:10.639Z,34.04
2024-05-09T21:19:12.534Z,34.05
2024-05-09T21:21:14.494Z,34.17
2024-05-09T21:23:16.383Z,34.22
2024-05-09T21:25:18.279Z,34.16
2024-05-09T21:27:20.220Z,34.12
2024-05-09T21:29:21.983Z,34.22
2024-05-09T21:31:23.795Z,34.07
2024-05-09T21:33:25.637Z,33.96
2024-05-09T21:35:27.636Z,34.08
2024-05-09T21:37:29.310Z,34.09
2024-05-09T21:39:31.227Z,34.15
2024-05-09T21:41:33.159Z,34.04
2024-05-09T21:43:35.060Z,34.03
2024-05-09T21:45:37.269Z,34.02
2024-05-09T21:47:42.306Z,33.96
2024-05-09T21:49:44.478Z,33.98
2024-05-09T21:51:46.216Z,34.01
2024-05-09T21:53:48.876Z,34.20
2024-05-09T21:55:50.699Z,34.29
2024-05-09T21:57:52.548Z,34.14
2024-05-09T21:59:54.331Z,33.91
2024-05-09T22:01:56.217Z,34.09
2024-05-09T22:03:58.299Z,34.04
2024-05-09T22:06:00.549Z,34.16
2024-05-09T22:08:02.447Z,33.86
2024-05-09T22:10:09.918Z,34.42
2024-05-09T22:12:17.559Z,34.13
2024-05-09T22:14:21.152Z,34.17
2024-05-09T22:16:23.299Z,34.14
2024-05-09T22:18:25.185Z,34.13
2024-05-09T22:20:34.424Z,34.21
2024-05-09T22:22:39.729Z,34.02
2024-05-09T22:24:41.454Z,34.22
2024-05-09T22:26:43.135Z,34.14
2024-05-09T22:28:44.932Z,34.01
2024-05-09T22:30:47.646Z,34.15
2024-05-09T22:32:49.682Z,34.46
2024-05-09T22:34:51.426Z,33.94
2024-05-09T22:36:53.740Z,34.16
2024-05-09T22:38:55.440Z,34.28
2024-05-09T22:40:57.139Z,34.38
2024-05-09T22:42:58.921Z,34.24
2024-05-09T22:45:00.590Z,34.10
2024-05-09T22:47:02.794Z,34.15
2024-05-09T22:49:05.042Z,34.02
2024-05-09T22:51:06.954Z,34.31
2024-05-09T22:53:08.665Z,34.17
2024-05-09T22:55:10.423Z,34.18
2024-05-09T22:57:12.196Z,34.26
2024-05-09T22:59:13.932Z,34.38
2024-05-09T23:01:16.125Z,34.34
2024-05-09T23:03:20.846Z,34.19
2024-05-09T23:05:23.189Z,34.26
2024-05-09T23:07:25.261Z,34.16
2024-05-09T23:09:27.022Z,34.23
2024-05-09T23:11:29.113Z,34.21
2024-05-09T23:13:31.254Z,34.29
2024-05-09T23:15:33.100Z,34.35
2024-05-09T23:17:35.188Z,34.13
2024-05-09T23:19:37.282Z,33.97
2024-05-09T23:21:40.672Z,33.79
2024-05-09T23:23:42.506Z,34.41
2024-05-09T23:25:45.377Z,34.25
2024-05-09T23:27:47.491Z,34.28
2024-05-09T23:29:49.280Z,34.33
2024-05-09T23:31:50.968Z,34.48
2024-05-09T23:33:54.770Z,34.18
2024-05-09T23:35:56.728Z,34.22
2024-05-09T23:37:58.455Z,34.63
2024-05-09T23:40:00.386Z,34.60
2024-05-09T23:42:04.171Z,34.09
2024-05-09T23:44:06.091Z,34.28
2024-05-09T23:46:08.642Z,34.38
2024-05-09T23:48:11.163Z,34.47
2024-05-09T23:50:20.213Z,34.23
2024-05-09T23:52:25.558Z,33.96
2024-05-09T23:54:27.259Z,34.47
2024-05-09T23:56:29.018Z,34.48
2024-05-09T23:58:31.487Z,34.17
